SWA114 KMCO-KDAL
Flight info
| Callsign | SWA114 |
|---|---|
| Flight time | 2h 25m |
| Altitude | 32000 |
| Route | OSPRY1 REMIS Y280 REDFN AEX PNUTS REDDN4 |
| Aircraft | B737/M-SDE2E3FGHIRWXY/LB1 |
Departure
| Time | 2026-04-21 15:51 |
|---|---|
| Airport | Orlando International Airport (KMCO) |
Arrival
| Time | 2026-04-21 18:17 |
|---|---|
| Airport | Dallas Love Field (KDAL) |
| Time | Latitude | Longitude | Altitude | Speed | Heading |
|---|---|---|---|---|---|
| 2026-04-21 15:28 | 28.43388 | -81.29981 | 100 ft | 0 kts | 303° |
| 2026-04-21 15:47 | 28.43387 | -81.29979 | 100 ft | 3 kts | 303° |
| 2026-04-21 15:47 | 28.43371 | -81.29956 | 100 ft | 4 kts | 313° |
| 2026-04-21 15:47 | 28.43351 | -81.29935 | 100 ft | 4 kts | 319° |
| 2026-04-21 15:47 | 28.43344 | -81.29927 | 99 ft | 0 kts | 319° |
| 2026-04-21 15:49 | 28.43361 | -81.29931 | 99 ft | 9 kts | 6° |
| 2026-04-21 15:49 | 28.43417 | -81.29885 | 100 ft | 11 kts | 15° |
| 2026-04-21 15:50 | 28.43500 | -81.29887 | 100 ft | 14 kts | 360° |
| 2026-04-21 15:50 | 28.43549 | -81.29855 | 101 ft | 8 kts | 71° |
| 2026-04-21 15:50 | 28.43549 | -81.29786 | 103 ft | 11 kts | 90° |
| 2026-04-21 15:50 | 28.43549 | -81.29693 | 102 ft | 14 kts | 90° |
| 2026-04-21 15:51 | 28.43522 | -81.29592 | 104 ft | 14 kts | 155° |
| 2026-04-21 15:51 | 28.43395 | -81.29586 | 106 ft | 42 kts | 178° |
| 2026-04-21 15:51 | 28.42722 | -81.29578 | 102 ft | 149 kts | 179° |
| 2026-04-21 15:51 | 28.41477 | -81.29555 | 699 ft | 198 kts | 179° |
| 2026-04-21 15:52 | 28.40012 | -81.29553 | 1862 ft | 221 kts | 182° |
| 2026-04-21 15:52 | 28.38494 | -81.30097 | 2837 ft | 244 kts | 215° |
| 2026-04-21 15:52 | 28.37689 | -81.31022 | 3362 ft | 254 kts | 236° |
| 2026-04-21 15:52 | 28.36477 | -81.33396 | 4560 ft | 271 kts | 240° |
| 2026-04-21 15:53 | 28.35502 | -81.35321 | 5292 ft | 286 kts | 238° |
| 2026-04-21 15:53 | 28.34203 | -81.36865 | 6355 ft | 269 kts | 214° |
| 2026-04-21 15:53 | 28.32670 | -81.38076 | 6605 ft | 266 kts | 218° |
| 2026-04-21 15:53 | 28.31330 | -81.39489 | 7144 ft | 262 kts | 229° |
| 2026-04-21 15:54 | 28.30237 | -81.41126 | 7724 ft | 265 kts | 237° |
| 2026-04-21 15:54 | 28.29178 | -81.42804 | 8701 ft | 256 kts | 228° |
| 2026-04-21 15:54 | 28.27926 | -81.44213 | 9830 ft | 254 kts | 224° |
| 2026-04-21 15:54 | 28.26718 | -81.45730 | 10580 ft | 267 kts | 234° |
| 2026-04-21 15:55 | 28.25642 | -81.47503 | 11370 ft | 274 kts | 231° |
| 2026-04-21 15:55 | 28.24355 | -81.49073 | 12445 ft | 270 kts | 225° |
| 2026-04-21 15:55 | 28.23034 | -81.50605 | 13334 ft | 275 kts | 226° |
| 2026-04-21 15:55 | 28.21709 | -81.52232 | 14013 ft | 286 kts | 229° |
| 2026-04-21 15:56 | 28.20863 | -81.53389 | 14552 ft | 289 kts | 231° |
| 2026-04-21 15:56 | 28.19601 | -81.55155 | 15485 ft | 289 kts | 231° |
| 2026-04-21 15:56 | 28.18336 | -81.56945 | 16317 ft | 293 kts | 231° |
| 2026-04-21 15:56 | 28.17052 | -81.58779 | 17000 ft | 302 kts | 232° |
| 2026-04-21 15:57 | 28.15304 | -81.61315 | 17878 ft | 311 kts | 232° |
| 2026-04-21 15:57 | 28.14412 | -81.62629 | 18342 ft | 311 kts | 232° |
| 2026-04-21 15:57 | 28.13104 | -81.64585 | 19071 ft | 311 kts | 233° |
| 2026-04-21 15:57 | 28.11810 | -81.66557 | 19746 ft | 313 kts | 233° |
| 2026-04-21 15:58 | 28.10516 | -81.68566 | 20342 ft | 318 kts | 234° |
| 2026-04-21 15:58 | 28.09226 | -81.70609 | 21035 ft | 318 kts | 234° |
| 2026-04-21 15:58 | 28.07959 | -81.72660 | 21830 ft | 318 kts | 235° |
| 2026-04-21 15:58 | 28.06653 | -81.74653 | 22773 ft | 312 kts | 234° |
| 2026-04-21 15:59 | 28.05435 | -81.76629 | 23573 ft | 312 kts | 233° |
| 2026-04-21 15:59 | 28.04044 | -81.78563 | 24042 ft | 322 kts | 228° |
| 2026-04-21 15:59 | 28.02543 | -81.80496 | 24558 ft | 329 kts | 229° |
| 2026-04-21 15:59 | 28.01051 | -81.82475 | 25262 ft | 330 kts | 230° |
| 2026-04-21 16:00 | 27.99566 | -81.84449 | 26052 ft | 327 kts | 229° |
| 2026-04-21 16:00 | 27.98086 | -81.86406 | 26720 ft | 329 kts | 229° |
| 2026-04-21 16:00 | 27.96583 | -81.88397 | 27141 ft | 338 kts | 230° |
| 2026-04-21 16:00 | 27.95034 | -81.90466 | 27457 ft | 350 kts | 230° |
| 2026-04-21 16:01 | 27.93457 | -81.92592 | 27929 ft | 354 kts | 230° |
| 2026-04-21 16:01 | 27.91888 | -81.94737 | 28490 ft | 351 kts | 231° |
| 2026-04-21 16:01 | 27.90365 | -81.96853 | 28981 ft | 351 kts | 231° |
| 2026-04-21 16:01 | 27.88832 | -81.99024 | 29265 ft | 354 kts | 232° |
| 2026-04-21 16:02 | 27.87309 | -82.01222 | 29449 ft | 354 kts | 232° |
| 2026-04-21 16:02 | 27.85744 | -82.03373 | 29565 ft | 355 kts | 229° |
| 2026-04-21 16:02 | 27.84115 | -82.05469 | 29744 ft | 353 kts | 228° |
| 2026-04-21 16:02 | 27.82505 | -82.07517 | 29942 ft | 351 kts | 228° |
| 2026-04-21 16:03 | 27.80879 | -82.09575 | 30089 ft | 350 kts | 228° |
| 2026-04-21 16:03 | 27.79266 | -82.11612 | 30312 ft | 347 kts | 228° |
| 2026-04-21 16:03 | 27.77660 | -82.13646 | 30558 ft | 346 kts | 228° |
| 2026-04-21 16:03 | 27.76062 | -82.15687 | 30814 ft | 347 kts | 229° |
| 2026-04-21 16:04 | 27.74471 | -82.17739 | 31034 ft | 348 kts | 229° |
| 2026-04-21 16:04 | 27.72874 | -82.19830 | 31284 ft | 354 kts | 229° |
| 2026-04-21 16:04 | 27.71346 | -82.22028 | 31627 ft | 360 kts | 238° |
| 2026-04-21 16:04 | 27.70262 | -82.24650 | 31604 ft | 376 kts | 252° |
| 2026-04-21 16:05 | 27.69631 | -82.27514 | 32136 ft | 374 kts | 259° |
| 2026-04-21 16:05 | 27.69172 | -82.30421 | 32408 ft | 380 kts | 261° |
| 2026-04-21 16:05 | 27.68772 | -82.33318 | 32519 ft | 388 kts | 261° |
| 2026-04-21 16:05 | 27.68385 | -82.36333 | 32794 ft | 390 kts | 266° |
| 2026-04-21 16:06 | 27.68497 | -82.39401 | 33034 ft | 392 kts | 281° |
| 2026-04-21 16:06 | 27.69242 | -82.42314 | 33292 ft | 395 kts | 290° |
| 2026-04-21 16:06 | 27.70207 | -82.45289 | 32885 ft | 415 kts | 290° |
| 2026-04-21 16:06 | 27.71235 | -82.48433 | 32434 ft | 435 kts | 290° |
| 2026-04-21 16:07 | 27.72289 | -82.51694 | 32068 ft | 445 kts | 290° |
| 2026-04-21 16:07 | 27.73339 | -82.54991 | 32037 ft | 446 kts | 289° |
| 2026-04-21 16:07 | 27.75406 | -82.61604 | 32002 ft | 447 kts | 289° |
| 2026-04-21 16:08 | 27.78469 | -82.71526 | 31999 ft | 447 kts | 289° |
| 2026-04-21 16:09 | 27.80516 | -82.78178 | 31999 ft | 447 kts | 289° |
| 2026-04-21 16:09 | 27.82557 | -82.84819 | 32001 ft | 447 kts | 289° |
| 2026-04-21 16:10 | 27.84598 | -82.91473 | 32001 ft | 447 kts | 289° |
| 2026-04-21 16:10 | 27.86623 | -82.98084 | 32001 ft | 447 kts | 289° |
| 2026-04-21 16:11 | 27.88655 | -83.04732 | 32001 ft | 447 kts | 289° |
| 2026-04-21 16:11 | 27.90683 | -83.11381 | 32001 ft | 447 kts | 289° |
| 2026-04-21 16:12 | 27.92711 | -83.18044 | 32001 ft | 447 kts | 289° |
| 2026-04-21 16:12 | 27.94723 | -83.24665 | 32001 ft | 447 kts | 289° |
| 2026-04-21 16:13 | 27.96743 | -83.31326 | 32001 ft | 447 kts | 289° |
| 2026-04-21 16:13 | 27.98759 | -83.37988 | 32001 ft | 447 kts | 289° |
| 2026-04-21 16:14 | 27.99957 | -83.44871 | 32003 ft | 447 kts | 271° |
| 2026-04-21 16:14 | 27.99630 | -83.51894 | 32000 ft | 447 kts | 265° |
| 2026-04-21 16:15 | 27.99156 | -83.58912 | 32001 ft | 447 kts | 265° |
| 2026-04-21 16:15 | 27.98713 | -83.65881 | 32001 ft | 447 kts | 266° |
| 2026-04-21 16:16 | 27.98290 | -83.72903 | 32001 ft | 447 kts | 266° |
| 2026-04-21 16:16 | 27.97873 | -83.79933 | 32001 ft | 447 kts | 266° |
| 2026-04-21 16:17 | 27.97456 | -83.86925 | 32001 ft | 447 kts | 266° |
| 2026-04-21 16:17 | 27.97032 | -83.93954 | 32001 ft | 447 kts | 266° |
| 2026-04-21 16:18 | 27.96603 | -84.00994 | 32001 ft | 447 kts | 266° |
| 2026-04-21 16:18 | 27.96172 | -84.08010 | 32001 ft | 447 kts | 266° |
| 2026-04-21 16:19 | 27.95737 | -84.15037 | 32001 ft | 447 kts | 266° |
| 2026-04-21 16:19 | 27.95301 | -84.22013 | 32001 ft | 447 kts | 266° |
| 2026-04-21 16:20 | 27.94859 | -84.29036 | 32001 ft | 447 kts | 266° |
| 2026-04-21 16:20 | 27.94413 | -84.36055 | 32001 ft | 447 kts | 266° |
| 2026-04-21 16:21 | 27.93964 | -84.43079 | 32001 ft | 447 kts | 266° |
| 2026-04-21 16:21 | 27.93510 | -84.50105 | 32001 ft | 447 kts | 266° |
| 2026-04-21 16:22 | 27.93056 | -84.57084 | 32001 ft | 447 kts | 265° |
| 2026-04-21 16:22 | 27.92597 | -84.64100 | 32001 ft | 447 kts | 265° |
| 2026-04-21 16:23 | 27.92133 | -84.71120 | 32001 ft | 447 kts | 265° |
| 2026-04-21 16:23 | 27.91669 | -84.78097 | 32001 ft | 447 kts | 265° |
| 2026-04-21 16:24 | 27.91198 | -84.85111 | 32001 ft | 447 kts | 265° |
| 2026-04-21 16:24 | 27.90724 | -84.92134 | 32001 ft | 447 kts | 265° |
| 2026-04-21 16:25 | 27.90246 | -84.99151 | 32001 ft | 447 kts | 265° |
| 2026-04-21 16:25 | 27.89768 | -85.06116 | 32001 ft | 447 kts | 265° |
| 2026-04-21 16:26 | 27.89284 | -85.13131 | 32001 ft | 447 kts | 265° |
| 2026-04-21 16:26 | 27.88797 | -85.20136 | 32001 ft | 447 kts | 265° |
| 2026-04-21 16:27 | 27.88935 | -85.27144 | 32005 ft | 447 kts | 280° |
| 2026-04-21 16:27 | 27.90716 | -85.33861 | 32004 ft | 447 kts | 289° |
| 2026-04-21 16:28 | 27.92801 | -85.40493 | 32001 ft | 447 kts | 289° |
| 2026-04-21 16:28 | 27.94845 | -85.47083 | 32001 ft | 447 kts | 289° |
| 2026-04-21 16:29 | 27.96870 | -85.53737 | 32001 ft | 447 kts | 289° |
| 2026-04-21 16:29 | 27.98877 | -85.60395 | 32001 ft | 447 kts | 289° |
| 2026-04-21 16:30 | 28.00882 | -85.67062 | 32001 ft | 447 kts | 289° |
| 2026-04-21 16:30 | 28.02883 | -85.73729 | 32001 ft | 447 kts | 289° |
| 2026-04-21 16:31 | 28.04870 | -85.80357 | 32001 ft | 447 kts | 289° |
| 2026-04-21 16:31 | 28.06868 | -85.87036 | 32001 ft | 447 kts | 289° |
| 2026-04-21 16:32 | 28.08860 | -85.93710 | 32001 ft | 447 kts | 289° |
| 2026-04-21 16:32 | 28.10851 | -86.00390 | 32001 ft | 447 kts | 288° |
| 2026-04-21 16:33 | 28.12836 | -86.07066 | 32001 ft | 447 kts | 288° |
| 2026-04-21 16:33 | 28.14820 | -86.13750 | 32001 ft | 447 kts | 288° |
| 2026-04-21 16:34 | 28.16790 | -86.20401 | 32001 ft | 447 kts | 288° |
| 2026-04-21 16:34 | 28.18766 | -86.27087 | 32001 ft | 447 kts | 288° |
| 2026-04-21 16:35 | 28.20740 | -86.33780 | 32001 ft | 447 kts | 288° |
| 2026-04-21 16:35 | 28.22710 | -86.40469 | 32001 ft | 447 kts | 288° |
| 2026-04-21 16:36 | 28.24678 | -86.47170 | 32001 ft | 447 kts | 288° |
| 2026-04-21 16:36 | 28.26641 | -86.53865 | 32001 ft | 447 kts | 288° |
| 2026-04-21 16:37 | 28.28590 | -86.60526 | 32001 ft | 447 kts | 288° |
| 2026-04-21 16:37 | 28.30549 | -86.67233 | 32001 ft | 447 kts | 288° |
| 2026-04-21 16:38 | 28.32506 | -86.73937 | 32001 ft | 447 kts | 288° |
| 2026-04-21 16:38 | 28.34471 | -86.80643 | 32001 ft | 447 kts | 288° |
| 2026-04-21 16:39 | 28.36421 | -86.87305 | 32001 ft | 447 kts | 288° |
| 2026-04-21 16:39 | 28.38379 | -86.94013 | 32001 ft | 447 kts | 288° |
| 2026-04-21 16:40 | 28.40332 | -87.00721 | 32001 ft | 447 kts | 288° |
| 2026-04-21 16:40 | 28.42281 | -87.07431 | 32001 ft | 447 kts | 288° |
| 2026-04-21 16:41 | 28.43899 | -87.13010 | 32001 ft | 447 kts | 288° |
| 2026-04-21 16:41 | 28.46157 | -87.20813 | 32001 ft | 447 kts | 288° |
| 2026-04-21 16:42 | 28.48097 | -87.27533 | 32001 ft | 447 kts | 288° |
| 2026-04-21 16:42 | 28.50032 | -87.34249 | 32001 ft | 447 kts | 288° |
| 2026-04-21 16:43 | 28.51963 | -87.40965 | 32001 ft | 447 kts | 288° |
| 2026-04-21 16:43 | 28.53566 | -87.46553 | 32001 ft | 447 kts | 288° |
| 2026-04-21 16:44 | 28.55497 | -87.53292 | 32001 ft | 447 kts | 288° |
| 2026-04-21 16:44 | 28.57420 | -87.60020 | 32001 ft | 447 kts | 288° |
| 2026-04-21 16:45 | 28.59340 | -87.66751 | 32001 ft | 447 kts | 288° |
| 2026-04-21 16:45 | 28.61257 | -87.73488 | 32001 ft | 447 kts | 288° |
| 2026-04-21 16:46 | 28.63156 | -87.80174 | 32001 ft | 447 kts | 288° |
| 2026-04-21 16:46 | 28.65068 | -87.86919 | 32001 ft | 447 kts | 288° |
| 2026-04-21 16:47 | 28.66977 | -87.93669 | 32001 ft | 447 kts | 288° |
| 2026-04-21 16:47 | 28.68880 | -88.00414 | 32001 ft | 447 kts | 288° |
| 2026-04-21 16:48 | 28.70781 | -88.07161 | 32001 ft | 447 kts | 288° |
| 2026-04-21 16:48 | 28.72663 | -88.13863 | 32001 ft | 447 kts | 288° |
| 2026-04-21 16:49 | 28.74552 | -88.20617 | 32001 ft | 447 kts | 288° |
| 2026-04-21 16:49 | 28.76438 | -88.27372 | 32001 ft | 447 kts | 288° |
| 2026-04-21 16:50 | 28.78320 | -88.34130 | 32001 ft | 447 kts | 288° |
| 2026-04-21 16:50 | 28.80197 | -88.40880 | 32001 ft | 447 kts | 287° |
| 2026-04-21 16:51 | 28.82070 | -88.47634 | 32001 ft | 447 kts | 287° |
| 2026-04-21 16:51 | 28.83943 | -88.54401 | 32001 ft | 447 kts | 287° |
| 2026-04-21 16:52 | 28.85811 | -88.61161 | 32001 ft | 447 kts | 287° |
| 2026-04-21 16:52 | 28.87682 | -88.67875 | 31999 ft | 447 kts | 290° |
| 2026-04-21 16:53 | 28.90687 | -88.74096 | 32007 ft | 446 kts | 306° |
| 2026-04-21 16:53 | 28.94405 | -88.79714 | 31997 ft | 447 kts | 307° |
| 2026-04-21 16:54 | 28.98165 | -88.85356 | 32001 ft | 447 kts | 307° |
| 2026-04-21 16:54 | 29.01899 | -88.91032 | 32001 ft | 447 kts | 307° |
| 2026-04-21 16:55 | 29.05613 | -88.96729 | 32001 ft | 447 kts | 307° |
| 2026-04-21 16:55 | 29.09320 | -89.02435 | 32001 ft | 447 kts | 306° |
| 2026-04-21 16:56 | 29.13023 | -89.08144 | 32001 ft | 447 kts | 306° |
| 2026-04-21 16:56 | 29.16727 | -89.13861 | 32001 ft | 447 kts | 306° |
| 2026-04-21 16:57 | 29.20424 | -89.19574 | 32001 ft | 447 kts | 306° |
| 2026-04-21 16:57 | 29.24126 | -89.25303 | 32001 ft | 447 kts | 306° |
| 2026-04-21 16:58 | 29.27822 | -89.31031 | 32001 ft | 447 kts | 306° |
| 2026-04-21 16:58 | 29.31517 | -89.36764 | 32001 ft | 447 kts | 306° |
| 2026-04-21 16:59 | 29.35208 | -89.42499 | 32001 ft | 447 kts | 306° |
| 2026-04-21 16:59 | 29.38873 | -89.48203 | 32001 ft | 447 kts | 306° |
| 2026-04-21 17:00 | 29.42565 | -89.53955 | 32001 ft | 447 kts | 306° |
| 2026-04-21 17:00 | 29.45627 | -89.58733 | 32001 ft | 447 kts | 306° |
| 2026-04-21 17:01 | 29.49933 | -89.65460 | 32001 ft | 447 kts | 306° |
| 2026-04-21 17:01 | 29.53613 | -89.71218 | 32001 ft | 447 kts | 306° |
| 2026-04-21 17:02 | 29.57269 | -89.76947 | 32002 ft | 447 kts | 306° |
| 2026-04-21 17:02 | 29.60946 | -89.82716 | 32001 ft | 447 kts | 306° |
| 2026-04-21 17:03 | 29.64622 | -89.88491 | 32001 ft | 447 kts | 306° |
| 2026-04-21 17:03 | 29.68293 | -89.94269 | 32001 ft | 447 kts | 306° |
| 2026-04-21 17:04 | 29.71935 | -90.00008 | 32001 ft | 447 kts | 306° |
| 2026-04-21 17:04 | 29.75607 | -90.05803 | 32001 ft | 447 kts | 306° |
| 2026-04-21 17:05 | 29.79272 | -90.11593 | 32001 ft | 447 kts | 306° |
| 2026-04-21 17:05 | 29.82930 | -90.17382 | 32001 ft | 447 kts | 306° |
| 2026-04-21 17:06 | 29.86558 | -90.23132 | 32001 ft | 447 kts | 306° |
| 2026-04-21 17:06 | 29.90214 | -90.28933 | 32001 ft | 447 kts | 306° |
| 2026-04-21 17:07 | 29.93250 | -90.33758 | 32001 ft | 447 kts | 306° |
| 2026-04-21 17:07 | 29.97517 | -90.40549 | 32001 ft | 447 kts | 306° |
| 2026-04-21 17:08 | 30.01143 | -90.46328 | 32001 ft | 447 kts | 306° |
| 2026-04-21 17:08 | 30.04785 | -90.52141 | 32001 ft | 447 kts | 306° |
| 2026-04-21 17:09 | 30.10248 | -90.60875 | 32001 ft | 447 kts | 306° |
| 2026-04-21 17:09 | 30.13885 | -90.66701 | 32001 ft | 447 kts | 306° |
| 2026-04-21 17:10 | 30.17523 | -90.72537 | 32001 ft | 447 kts | 306° |
| 2026-04-21 17:10 | 30.21129 | -90.78330 | 32001 ft | 447 kts | 306° |
| 2026-04-21 17:11 | 30.24758 | -90.84168 | 32001 ft | 447 kts | 306° |
| 2026-04-21 17:11 | 30.28383 | -90.90008 | 32001 ft | 447 kts | 306° |
| 2026-04-21 17:12 | 30.32008 | -90.95858 | 32001 ft | 447 kts | 306° |
| 2026-04-21 17:12 | 30.35629 | -91.01708 | 32001 ft | 447 kts | 306° |
| 2026-04-21 17:13 | 30.39251 | -91.07569 | 32001 ft | 447 kts | 306° |
| 2026-04-21 17:13 | 30.42868 | -91.13431 | 32001 ft | 447 kts | 306° |
| 2026-04-21 17:14 | 30.46459 | -91.19260 | 32001 ft | 447 kts | 305° |
| 2026-04-21 17:14 | 30.50003 | -91.25019 | 31978 ft | 423 kts | 305° |
| 2026-04-21 17:15 | 30.51677 | -91.27743 | 31978 ft | 406 kts | 305° |
| 2026-04-21 17:15 | 30.53287 | -91.30364 | 31979 ft | 391 kts | 305° |
| 2026-04-21 17:15 | 30.54831 | -91.32880 | 31977 ft | 376 kts | 305° |
| 2026-04-21 17:15 | 30.56325 | -91.35316 | 31983 ft | 364 kts | 305° |
| 2026-04-21 17:16 | 30.59248 | -91.40084 | 32012 ft | 365 kts | 305° |
| 2026-04-21 17:16 | 30.62193 | -91.44896 | 32011 ft | 369 kts | 305° |
| 2026-04-21 17:17 | 30.65183 | -91.49786 | 32009 ft | 372 kts | 305° |
| 2026-04-21 17:17 | 30.68178 | -91.54691 | 32002 ft | 372 kts | 305° |
| 2026-04-21 17:18 | 30.71148 | -91.59561 | 31998 ft | 370 kts | 305° |
| 2026-04-21 17:18 | 30.74117 | -91.64435 | 31998 ft | 368 kts | 305° |
| 2026-04-21 17:19 | 30.77074 | -91.69296 | 31999 ft | 367 kts | 305° |
| 2026-04-21 17:19 | 30.80017 | -91.74138 | 32001 ft | 366 kts | 305° |
| 2026-04-21 17:20 | 30.82953 | -91.78976 | 32003 ft | 365 kts | 305° |
| 2026-04-21 17:20 | 30.85871 | -91.83791 | 32003 ft | 366 kts | 305° |
| 2026-04-21 17:21 | 30.88810 | -91.88644 | 32003 ft | 367 kts | 305° |
| 2026-04-21 17:21 | 30.91755 | -91.93515 | 32002 ft | 368 kts | 305° |
| 2026-04-21 17:22 | 30.94705 | -91.98399 | 32002 ft | 369 kts | 305° |
| 2026-04-21 17:22 | 30.97659 | -92.03298 | 32001 ft | 369 kts | 305° |
| 2026-04-21 17:23 | 31.00591 | -92.08165 | 31991 ft | 365 kts | 305° |
| 2026-04-21 17:23 | 31.02027 | -92.10550 | 31980 ft | 354 kts | 305° |
| 2026-04-21 17:23 | 31.03418 | -92.12863 | 31978 ft | 342 kts | 305° |
| 2026-04-21 17:24 | 31.06104 | -92.17332 | 32004 ft | 335 kts | 305° |
| 2026-04-21 17:24 | 31.08795 | -92.21815 | 32010 ft | 338 kts | 305° |
| 2026-04-21 17:25 | 31.11503 | -92.26331 | 32009 ft | 340 kts | 305° |
| 2026-04-21 17:25 | 31.14221 | -92.30871 | 32010 ft | 342 kts | 305° |
| 2026-04-21 17:26 | 31.16951 | -92.35434 | 32004 ft | 343 kts | 305° |
| 2026-04-21 17:26 | 31.19665 | -92.39977 | 31999 ft | 342 kts | 305° |
| 2026-04-21 17:27 | 31.22387 | -92.44538 | 31999 ft | 341 kts | 305° |
| 2026-04-21 17:27 | 31.25094 | -92.49082 | 31998 ft | 340 kts | 303° |
| 2026-04-21 17:28 | 31.27142 | -92.54034 | 32007 ft | 338 kts | 291° |
| 2026-04-21 17:28 | 31.28568 | -92.58293 | 32005 ft | 337 kts | 291° |
| 2026-04-21 17:29 | 31.30556 | -92.64239 | 32001 ft | 338 kts | 291° |
| 2026-04-21 17:29 | 31.32283 | -92.69348 | 32002 ft | 338 kts | 291° |
| 2026-04-21 17:30 | 31.33728 | -92.73608 | 32003 ft | 339 kts | 291° |
| 2026-04-21 17:30 | 31.35471 | -92.78744 | 32003 ft | 340 kts | 291° |
| 2026-04-21 17:31 | 31.37218 | -92.83895 | 32002 ft | 340 kts | 291° |
| 2026-04-21 17:31 | 31.38965 | -92.89052 | 32002 ft | 341 kts | 291° |
| 2026-04-21 17:32 | 31.40711 | -92.94215 | 32001 ft | 341 kts | 291° |
| 2026-04-21 17:32 | 31.42458 | -92.99386 | 32000 ft | 341 kts | 291° |
| 2026-04-21 17:33 | 31.44191 | -93.04526 | 32001 ft | 341 kts | 291° |
| 2026-04-21 17:33 | 31.45930 | -93.09691 | 32001 ft | 340 kts | 291° |
| 2026-04-21 17:34 | 31.47665 | -93.14853 | 32000 ft | 340 kts | 291° |
| 2026-04-21 17:34 | 31.49395 | -93.20008 | 32000 ft | 339 kts | 291° |
| 2026-04-21 17:35 | 31.51110 | -93.25128 | 32001 ft | 339 kts | 291° |
| 2026-04-21 17:35 | 31.52832 | -93.30274 | 32002 ft | 339 kts | 291° |
| 2026-04-21 17:36 | 31.54552 | -93.35424 | 32001 ft | 339 kts | 291° |
| 2026-04-21 17:36 | 31.56271 | -93.40577 | 32002 ft | 339 kts | 291° |
| 2026-04-21 17:37 | 31.57990 | -93.45742 | 32002 ft | 340 kts | 291° |
| 2026-04-21 17:37 | 31.59708 | -93.50907 | 32001 ft | 340 kts | 291° |
| 2026-04-21 17:38 | 31.61442 | -93.56043 | 32001 ft | 340 kts | 292° |
| 2026-04-21 17:38 | 31.63280 | -93.61162 | 32002 ft | 340 kts | 293° |
| 2026-04-21 17:39 | 31.65129 | -93.66289 | 32001 ft | 341 kts | 293° |
| 2026-04-21 17:39 | 31.66971 | -93.71421 | 32000 ft | 340 kts | 292° |
| 2026-04-21 17:40 | 31.68793 | -93.76520 | 32000 ft | 340 kts | 292° |
| 2026-04-21 17:40 | 31.70621 | -93.81649 | 32001 ft | 340 kts | 292° |
| 2026-04-21 17:41 | 31.72445 | -93.86779 | 32001 ft | 340 kts | 292° |
| 2026-04-21 17:41 | 31.74267 | -93.91910 | 32000 ft | 340 kts | 292° |
| 2026-04-21 17:42 | 31.76083 | -93.97030 | 32001 ft | 339 kts | 292° |
| 2026-04-21 17:42 | 31.77896 | -94.02151 | 32002 ft | 339 kts | 292° |
| 2026-04-21 17:43 | 31.79711 | -94.07285 | 32001 ft | 340 kts | 292° |
| 2026-04-21 17:43 | 31.81523 | -94.12419 | 32007 ft | 342 kts | 292° |
| 2026-04-21 17:44 | 31.82440 | -94.15019 | 32028 ft | 356 kts | 292° |
| 2026-04-21 17:44 | 31.83406 | -94.17761 | 32021 ft | 370 kts | 292° |
| 2026-04-21 17:44 | 31.84407 | -94.20606 | 32023 ft | 383 kts | 292° |
| 2026-04-21 17:44 | 31.85440 | -94.23542 | 32022 ft | 395 kts | 292° |
| 2026-04-21 17:45 | 31.86505 | -94.26573 | 32016 ft | 406 kts | 292° |
| 2026-04-21 17:45 | 31.87598 | -94.29688 | 32020 ft | 416 kts | 292° |
| 2026-04-21 17:45 | 31.89852 | -94.36118 | 32017 ft | 433 kts | 292° |
| 2026-04-21 17:46 | 31.92189 | -94.42799 | 32011 ft | 448 kts | 292° |
| 2026-04-21 17:46 | 31.94575 | -94.49631 | 31985 ft | 451 kts | 292° |
| 2026-04-21 17:47 | 31.96619 | -94.56571 | 31988 ft | 451 kts | 287° |
| 2026-04-21 17:47 | 31.98452 | -94.63640 | 31993 ft | 451 kts | 287° |
| 2026-04-21 17:48 | 32.00291 | -94.70711 | 31999 ft | 450 kts | 287° |
| 2026-04-21 17:48 | 32.02150 | -94.77751 | 32000 ft | 449 kts | 287° |
| 2026-04-21 17:49 | 32.04017 | -94.84787 | 32000 ft | 449 kts | 287° |
| 2026-04-21 17:49 | 32.05868 | -94.91773 | 32001 ft | 448 kts | 287° |
| 2026-04-21 17:50 | 32.06787 | -94.95250 | 31807 ft | 443 kts | 285° |
| 2026-04-21 17:50 | 32.07686 | -94.98652 | 32045 ft | 430 kts | 285° |
| 2026-04-21 17:50 | 32.08577 | -95.02033 | 32168 ft | 433 kts | 285° |
| 2026-04-21 17:50 | 32.09474 | -95.05448 | 32236 ft | 437 kts | 285° |
| 2026-04-21 17:51 | 32.11280 | -95.12331 | 32297 ft | 440 kts | 285° |
| 2026-04-21 17:51 | 32.13089 | -95.19231 | 32159 ft | 441 kts | 285° |
| 2026-04-21 17:52 | 32.14009 | -95.22757 | 31172 ft | 452 kts | 285° |
| 2026-04-21 17:52 | 32.14923 | -95.26253 | 30551 ft | 447 kts | 285° |
| 2026-04-21 17:52 | 32.15821 | -95.29685 | 30417 ft | 430 kts | 285° |
| 2026-04-21 17:52 | 32.16688 | -95.33006 | 30217 ft | 416 kts | 285° |
| 2026-04-21 17:53 | 32.17541 | -95.36261 | 29339 ft | 417 kts | 285° |
| 2026-04-21 17:53 | 32.18404 | -95.39514 | 28715 ft | 413 kts | 285° |
| 2026-04-21 17:53 | 32.19264 | -95.42743 | 28036 ft | 410 kts | 285° |
| 2026-04-21 17:53 | 32.20120 | -95.45952 | 27381 ft | 408 kts | 285° |
| 2026-04-21 17:54 | 32.20966 | -95.49131 | 26755 ft | 405 kts | 285° |
| 2026-04-21 17:54 | 32.21805 | -95.52294 | 26128 ft | 402 kts | 285° |
| 2026-04-21 17:54 | 32.22641 | -95.55448 | 25512 ft | 400 kts | 285° |
| 2026-04-21 17:54 | 32.23459 | -95.58540 | 24891 ft | 398 kts | 285° |
| 2026-04-21 17:55 | 32.24282 | -95.61656 | 24251 ft | 397 kts | 285° |
| 2026-04-21 17:55 | 32.25100 | -95.64760 | 23559 ft | 395 kts | 285° |
| 2026-04-21 17:55 | 32.25912 | -95.67840 | 22865 ft | 392 kts | 285° |
| 2026-04-21 17:55 | 32.26718 | -95.70903 | 22221 ft | 388 kts | 286° |
| 2026-04-21 17:56 | 32.27513 | -95.73928 | 21587 ft | 384 kts | 285° |
| 2026-04-21 17:56 | 32.28300 | -95.76926 | 20962 ft | 380 kts | 285° |
| 2026-04-21 17:56 | 32.29079 | -95.79893 | 20363 ft | 377 kts | 285° |
| 2026-04-21 17:56 | 32.29853 | -95.82846 | 19754 ft | 373 kts | 285° |
| 2026-04-21 17:57 | 32.30617 | -95.85765 | 19153 ft | 371 kts | 285° |
| 2026-04-21 17:57 | 32.31373 | -95.88657 | 18551 ft | 368 kts | 285° |
| 2026-04-21 17:57 | 32.32127 | -95.91543 | 17865 ft | 365 kts | 285° |
| 2026-04-21 17:57 | 32.32873 | -95.94402 | 17175 ft | 361 kts | 285° |
| 2026-04-21 17:58 | 32.33607 | -95.97219 | 16410 ft | 363 kts | 285° |
| 2026-04-21 17:58 | 32.34346 | -96.00059 | 15773 ft | 359 kts | 285° |
| 2026-04-21 17:58 | 32.35078 | -96.02873 | 15166 ft | 357 kts | 285° |
| 2026-04-21 17:58 | 32.35806 | -96.05674 | 14554 ft | 356 kts | 285° |
| 2026-04-21 17:59 | 32.36533 | -96.08475 | 13918 ft | 356 kts | 285° |
| 2026-04-21 17:59 | 32.37261 | -96.11280 | 13211 ft | 355 kts | 285° |
| 2026-04-21 17:59 | 32.37975 | -96.14034 | 12595 ft | 342 kts | 285° |
| 2026-04-21 17:59 | 32.38657 | -96.16667 | 12010 ft | 327 kts | 285° |
| 2026-04-21 18:00 | 32.39311 | -96.19193 | 11454 ft | 315 kts | 285° |
| 2026-04-21 18:00 | 32.39940 | -96.21629 | 10911 ft | 303 kts | 285° |
| 2026-04-21 18:00 | 32.40544 | -96.23968 | 10426 ft | 292 kts | 285° |
| 2026-04-21 18:00 | 32.41112 | -96.26177 | 10311 ft | 274 kts | 285° |
| 2026-04-21 18:01 | 32.41658 | -96.28303 | 10164 ft | 265 kts | 285° |
| 2026-04-21 18:01 | 32.42184 | -96.30343 | 10054 ft | 262 kts | 285° |
| 2026-04-21 18:01 | 32.42720 | -96.32427 | 9768 ft | 269 kts | 285° |
| 2026-04-21 18:01 | 32.43264 | -96.34540 | 9402 ft | 266 kts | 285° |
| 2026-04-21 18:02 | 32.43960 | -96.36560 | 9000 ft | 266 kts | 303° |
| 2026-04-21 18:02 | 32.45213 | -96.38123 | 8862 ft | 261 kts | 319° |
| 2026-04-21 18:02 | 32.46705 | -96.39351 | 8709 ft | 262 kts | 324° |
| 2026-04-21 18:02 | 32.48253 | -96.40518 | 8552 ft | 266 kts | 324° |
| 2026-04-21 18:03 | 32.49836 | -96.41710 | 8392 ft | 270 kts | 324° |
| 2026-04-21 18:03 | 32.51417 | -96.42919 | 8222 ft | 271 kts | 323° |
| 2026-04-21 18:03 | 32.52995 | -96.44140 | 8056 ft | 271 kts | 323° |
| 2026-04-21 18:03 | 32.54568 | -96.45366 | 7888 ft | 271 kts | 323° |
| 2026-04-21 18:04 | 32.56139 | -96.46594 | 7729 ft | 270 kts | 323° |
| 2026-04-21 18:04 | 32.57687 | -96.47795 | 7586 ft | 268 kts | 324° |
| 2026-04-21 18:04 | 32.59254 | -96.48984 | 7415 ft | 265 kts | 324° |
| 2026-04-21 18:04 | 32.60797 | -96.50151 | 7243 ft | 261 kts | 324° |
| 2026-04-21 18:05 | 32.62325 | -96.51307 | 7085 ft | 260 kts | 324° |
| 2026-04-21 18:05 | 32.63847 | -96.52460 | 6936 ft | 259 kts | 323° |
| 2026-04-21 18:05 | 32.65363 | -96.53611 | 6786 ft | 258 kts | 323° |
| 2026-04-21 18:05 | 32.66877 | -96.54761 | 6625 ft | 257 kts | 324° |
| 2026-04-21 18:06 | 32.68378 | -96.55902 | 6469 ft | 256 kts | 323° |
| 2026-04-21 18:06 | 32.69870 | -96.57037 | 6276 ft | 257 kts | 323° |
| 2026-04-21 18:06 | 32.71387 | -96.58192 | 6122 ft | 260 kts | 323° |
| 2026-04-21 18:06 | 32.72924 | -96.59362 | 5962 ft | 264 kts | 324° |
| 2026-04-21 18:07 | 32.74424 | -96.60624 | 5807 ft | 264 kts | 315° |
| 2026-04-21 18:07 | 32.75764 | -96.62118 | 5652 ft | 266 kts | 313° |
| 2026-04-21 18:07 | 32.77122 | -96.63609 | 5478 ft | 263 kts | 314° |
| 2026-04-21 18:07 | 32.78462 | -96.65058 | 5314 ft | 260 kts | 313° |
| 2026-04-21 18:08 | 32.79800 | -96.66493 | 5158 ft | 257 kts | 313° |
| 2026-04-21 18:08 | 32.81157 | -96.67896 | 4996 ft | 260 kts | 321° |
| 2026-04-21 18:08 | 32.82811 | -96.68933 | 4829 ft | 267 kts | 331° |
| 2026-04-21 18:08 | 32.84504 | -96.69827 | 4605 ft | 273 kts | 332° |
| 2026-04-21 18:09 | 32.86252 | -96.70738 | 4393 ft | 275 kts | 332° |
| 2026-04-21 18:09 | 32.87989 | -96.71642 | 4254 ft | 269 kts | 333° |
| 2026-04-21 18:09 | 32.89117 | -96.72233 | 4184 ft | 268 kts | 333° |
| 2026-04-21 18:09 | 32.91425 | -96.73442 | 4005 ft | 272 kts | 333° |
| 2026-04-21 18:10 | 32.93169 | -96.74356 | 3970 ft | 277 kts | 332° |
| 2026-04-21 18:10 | 32.94928 | -96.75308 | 3937 ft | 279 kts | 332° |
| 2026-04-21 18:10 | 32.96683 | -96.76254 | 3945 ft | 271 kts | 332° |
| 2026-04-21 18:10 | 32.98333 | -96.77148 | 3921 ft | 257 kts | 332° |
| 2026-04-21 18:11 | 32.99937 | -96.77994 | 3923 ft | 247 kts | 327° |
| 2026-04-21 18:11 | 33.01102 | -96.79355 | 3806 ft | 229 kts | 288° |
| 2026-04-21 18:11 | 33.01266 | -96.81137 | 3455 ft | 213 kts | 251° |
| 2026-04-21 18:11 | 33.00888 | -96.82846 | 3089 ft | 214 kts | 243° |
| 2026-04-21 18:12 | 33.00300 | -96.84482 | 3024 ft | 217 kts | 239° |
| 2026-04-21 18:12 | 32.99886 | -96.85576 | 2988 ft | 217 kts | 240° |
| 2026-04-21 18:12 | 32.99280 | -96.87211 | 2942 ft | 212 kts | 240° |
| 2026-04-21 18:12 | 32.98527 | -96.89291 | 2926 ft | 201 kts | 239° |
| 2026-04-21 18:13 | 32.98032 | -96.90257 | 2931 ft | 189 kts | 219° |
| 2026-04-21 18:13 | 32.96970 | -96.91038 | 2769 ft | 187 kts | 194° |
| 2026-04-21 18:13 | 32.95713 | -96.91227 | 2601 ft | 179 kts | 180° |
| 2026-04-21 18:13 | 32.94499 | -96.91258 | 2413 ft | 169 kts | 179° |
| 2026-04-21 18:14 | 32.92310 | -96.91311 | 2081 ft | 146 kts | 178° |
| 2026-04-21 18:14 | 32.91272 | -96.91281 | 1888 ft | 149 kts | 167° |
| 2026-04-21 18:14 | 32.90343 | -96.90828 | 1724 ft | 142 kts | 144° |
| 2026-04-21 18:15 | 32.89599 | -96.90123 | 1536 ft | 132 kts | 139° |
| 2026-04-21 18:15 | 32.88952 | -96.89408 | 1380 ft | 123 kts | 137° |
| 2026-04-21 18:15 | 32.88320 | -96.88682 | 1225 ft | 127 kts | 135° |
| 2026-04-21 18:15 | 32.87692 | -96.87955 | 1066 ft | 125 kts | 136° |
| 2026-04-21 18:16 | 32.87073 | -96.87242 | 867 ft | 123 kts | 136° |
| 2026-04-21 18:16 | 32.86424 | -96.86490 | 737 ft | 135 kts | 134° |
| 2026-04-21 18:16 | 32.85746 | -96.85690 | 556 ft | 139 kts | 138° |
| 2026-04-21 18:16 | 32.85090 | -96.84941 | 488 ft | 112 kts | 135° |
| 2026-04-21 18:17 | 32.84807 | -96.84614 | 485 ft | 20 kts | 136° |
| 2026-04-21 18:17 | 32.84735 | -96.84618 | 482 ft | 11 kts | 228° |
| 2026-04-21 18:17 | 32.84718 | -96.84637 | 480 ft | 0 kts | 224° |
| 2026-04-21 18:18 | 32.84708 | -96.84663 | 484 ft | 8 kts | 267° |
| 2026-04-21 18:18 | 32.84746 | -96.84726 | 484 ft | 11 kts | 316° |
| 2026-04-21 18:18 | 32.84773 | -96.84803 | 477 ft | 12 kts | 240° |
| 2026-04-21 18:19 | 32.84744 | -96.84896 | 483 ft | 13 kts | 270° |
| 2026-04-21 18:19 | 32.84744 | -96.84998 | 483 ft | 12 kts | 270° |
| 2026-04-21 18:19 | 32.84745 | -96.85107 | 482 ft | 14 kts | 271° |
| 2026-04-21 18:19 | 32.84746 | -96.85218 | 482 ft | 13 kts | 270° |
| 2026-04-21 18:20 | 32.84725 | -96.85315 | 480 ft | 13 kts | 213° |
| 2026-04-21 18:20 | 32.84639 | -96.85330 | 481 ft | 12 kts | 186° |
| 2026-04-21 18:20 | 32.84553 | -96.85341 | 480 ft | 12 kts | 186° |
| 2026-04-21 18:20 | 32.84514 | -96.85280 | 482 ft | 12 kts | 88° |
| 2026-04-21 18:21 | 32.84536 | -96.85216 | 482 ft | 2 kts | 33° |
| 2026-04-21 18:21 | 32.84548 | -96.85206 | 478 ft | 2 kts | 34° |
| 2026-04-21 18:21 | 32.84556 | -96.85200 | 482 ft | 0 kts | 34° |